Time;durP1;ratioP1;P1;durP2;ratioP2;P2;SDS_P1;SDS_P2;PMS_P1;PMS_P2;Temp;Humidity;BMP_temperature;BMP_pressure;BME280_temperature;BME280_humidity;BME280_pressure;Samples;Min_cycle;Max_cycle;Signal;HPM_P1;HPM_P2
2022/04/30 00:01:01;;;;;;;17.88;11.68;;;;;;;;;;5015472;28;20406;-78
2022/04/30 00:03:30;;;;;;;17.63;12.27;;;;;;;;;;5014059;28;20110;-78
2022/04/30 00:05:57;;;;;;;15.60;11.35;;;;;;;;;;5013517;28;20477;-77
2022/04/30 00:08:25;;;;;;;18.73;12.15;;;;;;;;;;5013605;28;20050;-77
2022/04/30 00:10:53;;;;;;;16.02;12.13;;;;;;;;;;4994647;28;20109;-78
2022/04/30 00:13:20;;;;;;;21.48;12.27;;;;;;;;;;4994349;28;20092;-79
2022/04/30 00:15:47;;;;;;;21.08;12.85;;;;;;;;;;4994283;28;20120;-78
2022/04/30 00:18:14;;;;;;;19.08;12.98;;;;;;;;;;4994239;28;20467;-77
2022/04/30 00:20:45;;;;;;;18.20;11.95;;;;;;;;;;4994141;28;20047;-79
2022/04/30 00:23:19;;;;;;;17.30;13.00;;;;;;;;;;4993653;28;20084;-79
2022/04/30 00:25:49;;;;;;;18.90;13.35;;;;;;;;;;4994490;28;20386;-79
2022/04/30 00:28:16;;;;;;;20.52;13.05;;;;;;;;;;4994551;28;20133;-78
2022/04/30 00:30:45;;;;;;;17.67;13.02;;;;;;;;;;4993833;28;20051;-78
2022/04/30 00:33:12;;;;;;;18.15;12.80;;;;;;;;;;4993137;28;20101;-77
2022/04/30 00:35:39;;;;;;;18.58;14.15;;;;;;;;;;4992367;28;20050;-77
2022/04/30 00:38:07;;;;;;;21.05;13.38;;;;;;;;;;4993629;28;20072;-77
2022/04/30 00:40:34;;;;;;;20.58;14.13;;;;;;;;;;4993699;28;20050;-77
2022/04/30 00:43:02;;;;;;;18.70;13.70;;;;;;;;;;4994169;28;20050;-78
2022/04/30 00:45:28;;;;;;;19.85;13.68;;;;;;;;;;4995641;28;20105;-78
2022/04/30 00:47:56;;;;;;;19.67;13.50;;;;;;;;;;5012771;28;20050;-77
2022/04/30 00:50:24;;;;;;;21.70;14.13;;;;;;;;;;5012877;28;20057;-77
2022/04/30 00:52:53;;;;;;;17.50;13.18;;;;;;;;;;5012674;28;20050;-77
2022/04/30 00:55:22;;;;;;;19.25;12.90;;;;;;;;;;5013055;28;20050;-77
2022/04/30 00:57:54;;;;;;;19.20;13.15;;;;;;;;;;5013077;28;20137;-79
2022/04/30 01:00:22;;;;;;;17.80;13.07;;;;;;;;;;5013139;28;20829;-77
2022/04/30 01:02:49;;;;;;;16.70;12.95;;;;;;;;;;5013238;28;20046;-77
2022/04/30 01:05:16;;;;;;;18.30;13.65;;;;;;;;;;5013763;28;20046;-77
2022/04/30 01:07:43;;;;;;;21.13;13.70;;;;;;;;;;5016219;28;20050;-77
2022/04/30 01:10:10;;;;;;;18.02;14.30;;;;;;;;;;5037251;28;20046;-76
2022/04/30 01:12:38;;;;;;;20.33;13.35;;;;;;;;;;5032927;28;20045;-77
2022/04/30 01:15:06;;;;;;;19.10;14.07;;;;;;;;;;5013690;28;20057;-77
2022/04/30 01:17:35;;;;;;;16.75;13.68;;;;;;;;;;5012854;28;20050;-77
2022/04/30 01:20:04;;;;;;;19.92;13.90;;;;;;;;;;5013266;28;20160;-78
2022/04/30 01:22:33;;;;;;;18.92;13.85;;;;;;;;;;5013414;28;20185;-77
2022/04/30 01:25:03;;;;;;;19.65;14.65;;;;;;;;;;5013318;28;20141;-78
2022/04/30 01:27:31;;;;;;;22.13;14.90;;;;;;;;;;5013469;28;20390;-78
2022/04/30 01:30:01;;;;;;;20.70;15.15;;;;;;;;;;5013872;28;20149;-78
2022/04/30 01:38:01;;;;;;;18.40;13.32;;;;;;;;;;5014243;28;20061;-77
2022/04/30 01:40:30;;;;;;;17.17;13.45;;;;;;;;;;5013737;28;20514;-77
2022/04/30 01:43:00;;;;;;;18.92;14.05;;;;;;;;;;5013813;28;20088;-77
2022/04/30 01:45:28;;;;;;;20.40;13.35;;;;;;;;;;5013399;28;20053;-78
2022/04/30 01:47:57;;;;;;;20.85;14.32;;;;;;;;;;5015937;28;20041;-78
2022/04/30 01:50:24;;;;;;;16.70;12.40;;;;;;;;;;5016911;28;20444;-78
2022/04/30 01:52:51;;;;;;;21.52;13.10;;;;;;;;;;5017150;28;20475;-77
2022/04/30 01:55:18;;;;;;;19.05;13.35;;;;;;;;;;5050310;22;20046;-77
2022/04/30 01:57:47;;;;;;;23.95;13.75;;;;;;;;;;5036817;28;20054;-79
2022/04/30 02:00:15;;;;;;;18.02;12.90;;;;;;;;;;5038123;28;20107;-78
2022/04/30 02:02:44;;;;;;;18.15;13.43;;;;;;;;;;5039328;28;20060;-78
2022/04/30 02:05:13;;;;;;;18.58;13.43;;;;;;;;;;5037399;28;20496;-79
2022/04/30 02:07:43;;;;;;;17.52;12.68;;;;;;;;;;5037917;28;20075;-78
2022/04/30 02:10:12;;;;;;;16.90;13.27;;;;;;;;;;5035668;28;20049;-77
2022/04/30 02:12:39;;;;;;;19.15;13.35;;;;;;;;;;5035860;28;20053;-78
2022/04/30 02:15:09;;;;;;;19.50;14.93;;;;;;;;;;5035517;28;20056;-78
2022/04/30 02:17:40;;;;;;;16.98;14.00;;;;;;;;;;5035761;28;20053;-77
2022/04/30 02:20:22;;;;;;;18.33;13.50;;;;;;;;;;5036456;28;20057;-79
2022/04/30 02:22:50;;;;;;;20.17;14.18;;;;;;;;;;5037599;28;20136;-78
2022/04/30 02:25:19;;;;;;;21.08;14.35;;;;;;;;;;5037617;28;20049;-76
2022/04/30 02:27:48;;;;;;;21.30;13.80;;;;;;;;;;5037914;28;20045;-79
2022/04/30 02:30:17;;;;;;;18.83;15.40;;;;;;;;;;5047085;28;20053;-76
2022/04/30 02:32:46;;;;;;;24.65;15.27;;;;;;;;;;5052722;28;20052;-76
2022/04/30 02:35:14;;;;;;;21.27;14.90;;;;;;;;;;5042119;28;20515;-78
2022/04/30 02:37:44;;;;;;;23.23;15.15;;;;;;;;;;5039699;28;20049;-79
2022/04/30 02:40:13;;;;;;;20.85;15.65;;;;;;;;;;5038814;28;20073;-80
2022/04/30 02:42:41;;;;;;;22.15;14.73;;;;;;;;;;5040446;28;20073;-77
2022/04/30 02:45:09;;;;;;;19.73;14.55;;;;;;;;;;5040589;28;20045;-77
2022/04/30 02:47:38;;;;;;;19.70;14.82;;;;;;;;;;5039346;28;20060;-80
2022/04/30 02:50:06;;;;;;;21.48;15.68;;;;;;;;;;5039356;28;20128;-78
2022/04/30 02:52:33;;;;;;;18.90;14.75;;;;;;;;;;5039600;28;20057;-79
2022/04/30 02:55:00;;;;;;;21.63;15.85;;;;;;;;;;5038085;28;20052;-79
2022/04/30 02:57:38;;;;;;;20.02;15.02;;;;;;;;;;5038177;28;20077;-77
2022/04/30 03:00:04;;;;;;;23.02;15.68;;;;;;;;;;5037350;28;20049;-77
2022/04/30 03:02:31;;;;;;;22.85;15.80;;;;;;;;;;5038196;28;20496;-78
2022/04/30 03:04:59;;;;;;;21.90;15.80;;;;;;;;;;5038192;28;20055;-79
2022/04/30 03:07:26;;;;;;;22.30;15.38;;;;;;;;;;5040485;28;20060;-79
2022/04/30 03:09:52;;;;;;;20.67;14.73;;;;;;;;;;5039497;28;20054;-80
2022/04/30 03:12:19;;;;;;;20.63;15.38;;;;;;;;;;5040503;28;20053;-78
2022/04/30 03:14:46;;;;;;;19.95;15.10;;;;;;;;;;5040404;28;20045;-80
2022/04/30 03:22:43;;;;;;;24.90;16.35;;;;;;;;;;5038205;28;20060;-80
2022/04/30 03:25:10;;;;;;;23.08;15.55;;;;;;;;;;5037244;28;20053;-80
2022/04/30 03:27:37;;;;;;;22.02;16.15;;;;;;;;;;5037526;28;20045;-78
2022/04/30 03:30:04;;;;;;;24.45;16.05;;;;;;;;;;5037217;28;20049;-78
2022/04/30 03:32:32;;;;;;;20.67;16.13;;;;;;;;;;5037261;28;20053;-79
2022/04/30 03:35:00;;;;;;;22.80;17.92;;;;;;;;;;5036952;28;20081;-78
2022/04/30 03:37:27;;;;;;;21.80;15.70;;;;;;;;;;5036819;28;20060;-78
2022/04/30 03:39:54;;;;;;;22.55;15.18;;;;;;;;;;5036965;28;20053;-78
2022/04/30 03:42:20;;;;;;;22.33;15.95;;;;;;;;;;5037530;28;20049;-78
2022/04/30 03:44:48;;;;;;;20.48;15.70;;;;;;;;;;5043509;28;20080;-79
2022/04/30 03:47:15;;;;;;;24.02;17.25;;;;;;;;;;5052600;28;20029;-79
2022/04/30 03:49:42;;;;;;;21.98;15.90;;;;;;;;;;5034114;28;20137;-79
2022/04/30 03:52:12;;;;;;;22.52;16.55;;;;;;;;;;5034895;28;20083;-78
2022/04/30 03:54:39;;;;;;;22.05;16.38;;;;;;;;;;5034342;28;20113;-77
2022/04/30 03:57:06;;;;;;;21.77;15.77;;;;;;;;;;5034768;28;20430;-78
2022/04/30 03:59:32;;;;;;;26.20;17.52;;;;;;;;;;5035703;28;20060;-79
2022/04/30 04:02:00;;;;;;;22.52;15.75;;;;;;;;;;5034712;28;20045;-78
2022/04/30 04:04:27;;;;;;;22.50;15.95;;;;;;;;;;5034923;28;20149;-78
2022/04/30 04:06:54;;;;;;;24.00;15.70;;;;;;;;;;5036049;28;20072;-79
2022/04/30 04:09:22;;;;;;;23.23;16.88;;;;;;;;;;5035972;28;20046;-79
2022/04/30 04:11:49;;;;;;;22.92;17.52;;;;;;;;;;5036286;28;20530;-79
2022/04/30 04:19:45;;;;;;;24.90;17.52;;;;;;;;;;5037028;28;20095;-79
2022/04/30 04:22:12;;;;;;;22.10;16.70;;;;;;;;;;5037305;28;20046;-77
2022/04/30 04:27:24;;;;;;;22.35;16.65;;;;;;;;;;5041539;28;20130;-78
2022/04/30 04:29:51;;;;;;;24.95;16.92;;;;;;;;;;5036270;28;20049;-78
2022/04/30 04:32:18;;;;;;;21.05;16.40;;;;;;;;;;5035416;28;20050;-80
2022/04/30 04:34:45;;;;;;;22.25;16.25;;;;;;;;;;5036566;28;20045;-78
2022/04/30 04:37:11;;;;;;;21.30;15.57;;;;;;;;;;5034754;28;20551;-78
2022/04/30 04:39:39;;;;;;;21.48;15.68;;;;;;;;;;5035333;28;20054;-79
2022/04/30 04:42:07;;;;;;;22.42;15.77;;;;;;;;;;5034967;28;20056;-79
2022/04/30 04:44:35;;;;;;;23.77;16.08;;;;;;;;;;5034995;28;20480;-79
2022/04/30 04:47:02;;;;;;;21.83;16.35;;;;;;;;;;5035942;28;20053;-79
2022/04/30 04:49:29;;;;;;;21.73;15.98;;;;;;;;;;5019924;28;20061;-77
2022/04/30 04:51:56;;;;;;;22.30;16.52;;;;;;;;;;5016363;28;20053;-79
2022/04/30 04:54:23;;;;;;;21.92;16.55;;;;;;;;;;5015754;28;20050;-79
2022/04/30 04:56:51;;;;;;;23.20;16.38;;;;;;;;;;5015162;28;20135;-79
2022/04/30 04:59:18;;;;;;;22.80;16.30;;;;;;;;;;5016206;28;20456;-78
2022/04/30 05:01:48;;;;;;;22.52;15.88;;;;;;;;;;5015731;28;20060;-79
2022/04/30 05:04:15;;;;;;;21.02;14.88;;;;;;;;;;5016026;28;20073;-79
2022/04/30 05:06:42;;;;;;;20.27;15.05;;;;;;;;;;5015748;28;20128;-78
2022/04/30 05:09:09;;;;;;;22.15;16.58;;;;;;;;;;5016213;28;20124;-79
2022/04/30 05:11:37;;;;;;;19.83;14.68;;;;;;;;;;5016047;28;20096;-78
2022/04/30 05:14:06;;;;;;;21.50;15.32;;;;;;;;;;5016141;28;20452;-78
2022/04/30 05:16:33;;;;;;;22.33;16.23;;;;;;;;;;5016619;28;20053;-78
2022/04/30 05:19:00;;;;;;;29.67;18.20;;;;;;;;;;5018447;28;20501;-78
2022/04/30 05:21:26;;;;;;;25.33;17.15;;;;;;;;;;5018348;28;20057;-78
2022/04/30 05:23:53;;;;;;;23.92;17.75;;;;;;;;;;5020347;28;20054;-79
2022/04/30 05:26:20;;;;;;;25.13;19.40;;;;;;;;;;5019980;28;20050;-79
2022/04/30 05:28:47;;;;;;;25.38;19.02;;;;;;;;;;5020450;28;20560;-79
2022/04/30 05:31:15;;;;;;;25.30;19.65;;;;;;;;;;5020070;28;20476;-79
2022/04/30 05:33:42;;;;;;;27.40;19.20;;;;;;;;;;5026154;28;20050;-77
2022/04/30 05:36:08;;;;;;;26.60;19.27;;;;;;;;;;5031788;28;20050;-78
2022/04/30 05:38:35;;;;;;;30.52;19.80;;;;;;;;;;5025204;28;20057;-79
2022/04/30 05:41:02;;;;;;;26.25;18.33;;;;;;;;;;5021148;28;20053;-79
2022/04/30 05:43:29;;;;;;;27.23;18.42;;;;;;;;;;5020154;28;20049;-78
2022/04/30 05:45:56;;;;;;;26.25;18.55;;;;;;;;;;5025883;28;20049;-79
2022/04/30 05:48:24;;;;;;;26.00;18.88;;;;;;;;;;5039736;28;20057;-78
2022/04/30 05:50:52;;;;;;;29.05;19.50;;;;;;;;;;5040142;28;20046;-78
2022/04/30 05:53:19;;;;;;;26.33;18.30;;;;;;;;;;5039501;28;20054;-79
2022/04/30 05:55:45;;;;;;;26.48;18.55;;;;;;;;;;5039223;28;20074;-78
2022/04/30 05:58:12;;;;;;;23.45;17.73;;;;;;;;;;5040513;28;20046;-79
2022/04/30 06:00:39;;;;;;;25.50;18.17;;;;;;;;;;5041722;28;20046;-80
2022/04/30 06:03:06;;;;;;;26.92;18.27;;;;;;;;;;5040852;28;20046;-78
2022/04/30 06:05:34;;;;;;;25.20;17.83;;;;;;;;;;5040111;28;20061;-79
2022/04/30 06:08:01;;;;;;;25.13;18.77;;;;;;;;;;5039909;28;20041;-79
2022/04/30 06:10:28;;;;;;;24.40;17.85;;;;;;;;;;5038376;28;20049;-78
2022/04/30 06:12:55;;;;;;;25.77;19.05;;;;;;;;;;5042628;28;20053;-76
2022/04/30 06:15:21;;;;;;;22.00;16.23;;;;;;;;;;5043898;28;20049;-78
2022/04/30 06:17:48;;;;;;;25.80;19.20;;;;;;;;;;5041910;28;20049;-79
2022/04/30 06:20:15;;;;;;;25.52;18.25;;;;;;;;;;5047856;28;20049;-76
2022/04/30 06:22:44;;;;;;;26.85;18.45;;;;;;;;;;5053116;28;20049;-77
2022/04/30 06:25:11;;;;;;;25.48;17.55;;;;;;;;;;5054365;28;20061;-77
2022/04/30 06:27:38;;;;;;;22.92;17.80;;;;;;;;;;5050742;28;20083;-77
2022/04/30 06:30:06;;;;;;;28.20;18.85;;;;;;;;;;5055120;28;20046;-77
2022/04/30 06:32:33;;;;;;;27.02;18.45;;;;;;;;;;5054600;28;20077;-76
2022/04/30 06:35:01;;;;;;;27.63;18.50;;;;;;;;;;5054929;28;20049;-76
2022/04/30 06:37:27;;;;;;;26.65;18.60;;;;;;;;;;5055022;28;20053;-77
2022/04/30 06:39:56;;;;;;;25.70;18.08;;;;;;;;;;5056685;28;20057;-76
2022/04/30 06:42:22;;;;;;;31.35;20.15;;;;;;;;;;5058543;28;20033;-77
2022/04/30 06:44:51;;;;;;;25.50;18.13;;;;;;;;;;5056415;28;20042;-77
2022/04/30 06:47:18;;;;;;;25.33;18.65;;;;;;;;;;5056292;28;20052;-76
2022/04/30 06:49:45;;;;;;;24.30;18.02;;;;;;;;;;5056979;28;20056;-76
2022/04/30 06:52:12;;;;;;;24.60;17.95;;;;;;;;;;5055124;28;20049;-76
2022/04/30 06:57:24;;;;;;;25.77;17.83;;;;;;;;;;5051984;28;20075;-76
2022/04/30 06:59:54;;;;;;;24.00;17.27;;;;;;;;;;5050752;28;20075;-76
2022/04/30 07:02:22;;;;;;;24.48;17.52;;;;;;;;;;5051191;28;20120;-76
2022/04/30 07:04:51;;;;;;;22.83;16.20;;;;;;;;;;5051232;28;20059;-76
2022/04/30 07:07:19;;;;;;;21.45;16.23;;;;;;;;;;5051470;28;20405;-76
2022/04/30 07:09:46;;;;;;;24.90;16.20;;;;;;;;;;5051113;28;20054;-77
2022/04/30 07:12:14;;;;;;;23.60;17.13;;;;;;;;;;5051548;28;20049;-76
2022/04/30 07:14:44;;;;;;;22.00;16.75;;;;;;;;;;5050424;28;20492;-76
2022/04/30 07:17:13;;;;;;;24.00;17.83;;;;;;;;;;5051681;28;20646;-75
2022/04/30 07:19:40;;;;;;;25.58;16.77;;;;;;;;;;5049128;28;20305;-76
2022/04/30 07:22:08;;;;;;;25.17;17.13;;;;;;;;;;5052022;28;20041;-77
2022/04/30 07:24:35;;;;;;;25.10;16.92;;;;;;;;;;5050659;28;20073;-75
2022/04/30 07:27:04;;;;;;;27.25;17.92;;;;;;;;;;5051113;28;20105;-77
2022/04/30 07:29:31;;;;;;;24.55;17.80;;;;;;;;;;5050585;28;20045;-77
2022/04/30 07:32:00;;;;;;;25.92;17.58;;;;;;;;;;5050096;28;20061;-77
2022/04/30 07:34:27;;;;;;;23.58;15.70;;;;;;;;;;5049014;28;20036;-77
2022/04/30 07:36:54;;;;;;;23.48;17.65;;;;;;;;;;5049884;28;20060;-76
2022/04/30 07:39:21;;;;;;;26.70;17.27;;;;;;;;;;5049899;28;20100;-77
2022/04/30 07:41:54;;;;;;;24.13;16.35;;;;;;;;;;5055021;28;20046;-77
2022/04/30 07:44:22;;;;;;;25.77;16.88;;;;;;;;;;5054725;28;20057;-78
2022/04/30 07:46:49;;;;;;;27.67;17.92;;;;;;;;;;5050887;28;20132;-76
2022/04/30 07:49:17;;;;;;;26.88;17.92;;;;;;;;;;5051573;28;20104;-77
2022/04/30 07:51:53;;;;;;;23.58;17.48;;;;;;;;;;5047954;28;20060;-79
2022/04/30 07:54:20;;;;;;;28.20;17.85;;;;;;;;;;5046571;28;20045;-79
2022/04/30 07:56:47;;;;;;;25.25;18.45;;;;;;;;;;5038526;28;20140;-78
2022/04/30 07:59:14;;;;;;;25.70;17.63;;;;;;;;;;5037706;28;20532;-79
2022/04/30 08:01:41;;;;;;;27.60;18.33;;;;;;;;;;5037229;28;20057;-79
2022/04/30 08:04:08;;;;;;;28.17;19.83;;;;;;;;;;5039426;28;20107;-79
2022/04/30 08:06:36;;;;;;;30.60;20.08;;;;;;;;;;5037899;28;20049;-79
2022/04/30 08:09:03;;;;;;;29.92;19.35;;;;;;;;;;5038204;28;20050;-78
2022/04/30 08:11:30;;;;;;;28.90;20.10;;;;;;;;;;5037233;28;20107;-78
2022/04/30 08:13:57;;;;;;;27.88;19.20;;;;;;;;;;5037893;28;20045;-78
2022/04/30 08:16:24;;;;;;;29.45;20.88;;;;;;;;;;5035898;28;20042;-79
2022/04/30 08:18:50;;;;;;;28.77;20.50;;;;;;;;;;5037714;28;20045;-79
2022/04/30 08:21:17;;;;;;;25.08;18.27;;;;;;;;;;5036024;28;20049;-77
2022/04/30 08:23:46;;;;;;;26.45;18.95;;;;;;;;;;5035233;28;20463;-77
2022/04/30 08:26:13;;;;;;;28.20;20.23;;;;;;;;;;5036567;28;20049;-78
2022/04/30 08:28:40;;;;;;;31.90;21.58;;;;;;;;;;5035639;28;20049;-78
2022/04/30 08:31:07;;;;;;;28.80;20.17;;;;;;;;;;5034715;28;20045;-78
2022/04/30 08:33:33;;;;;;;29.58;21.38;;;;;;;;;;5034853;28;20045;-78
2022/04/30 08:36:00;;;;;;;28.10;20.73;;;;;;;;;;5035194;28;20052;-78
2022/04/30 08:38:27;;;;;;;28.17;20.33;;;;;;;;;;5037390;28;20053;-78
2022/04/30 08:40:55;;;;;;;27.67;19.63;;;;;;;;;;5039085;28;20045;-77
2022/04/30 08:43:22;;;;;;;29.75;20.65;;;;;;;;;;5035802;28;20103;-78
2022/04/30 08:45:49;;;;;;;26.05;19.30;;;;;;;;;;5035212;28;20115;-79
2022/04/30 08:48:18;;;;;;;24.25;18.42;;;;;;;;;;5034643;28;20049;-77
2022/04/30 08:50:47;;;;;;;25.92;18.35;;;;;;;;;;5033234;28;20050;-77
2022/04/30 08:53:14;;;;;;;23.30;16.52;;;;;;;;;;5032993;28;20459;-77
2022/04/30 08:55:41;;;;;;;21.75;16.42;;;;;;;;;;5033019;28;20145;-77
2022/04/30 08:58:09;;;;;;;26.75;17.90;;;;;;;;;;5036046;28;20057;-75
2022/04/30 09:00:41;;;;;;;24.52;17.23;;;;;;;;;;5042089;28;20076;-78
2022/04/30 09:03:08;;;;;;;25.52;18.27;;;;;;;;;;5037956;28;20057;-76
2022/04/30 09:05:36;;;;;;;25.52;18.52;;;;;;;;;;5038230;28;20136;-76
2022/04/30 09:08:05;;;;;;;25.38;18.67;;;;;;;;;;5037139;28;20073;-76
2022/04/30 09:10:34;;;;;;;23.63;17.95;;;;;;;;;;5037227;28;20048;-76
2022/04/30 09:13:06;;;;;;;27.70;18.52;;;;;;;;;;5037288;28;20476;-76
2022/04/30 09:15:35;;;;;;;24.45;18.40;;;;;;;;;;5037160;28;20103;-79
2022/04/30 09:18:04;;;;;;;25.50;18.15;;;;;;;;;;5039965;28;20073;-78
2022/04/30 09:20:32;;;;;;;26.63;19.05;;;;;;;;;;5039912;28;20042;-78
2022/04/30 09:22:58;;;;;;;26.58;18.35;;;;;;;;;;5040080;28;20053;-78
2022/04/30 09:25:25;;;;;;;25.30;18.58;;;;;;;;;;5038934;28;20052;-76
2022/04/30 09:27:53;;;;;;;26.00;19.55;;;;;;;;;;5040102;28;20100;-78
2022/04/30 09:30:24;;;;;;;26.67;19.13;;;;;;;;;;5038566;28;20491;-79
2022/04/30 09:33:10;;;;;;;25.08;19.15;;;;;;;;;;5040251;28;20045;-77
2022/04/30 09:38:25;;;;;;;24.83;17.85;;;;;;;;;;5044201;28;20061;-78
2022/04/30 09:40:53;;;;;;;27.25;18.52;;;;;;;;;;5040260;28;20050;-75
2022/04/30 09:43:20;;;;;;;25.98;18.52;;;;;;;;;;5046430;28;20045;-74
2022/04/30 09:45:47;;;;;;;26.65;18.67;;;;;;;;;;5051876;28;20041;-76
2022/04/30 09:54:00;;;;;;;29.83;19.80;;;;;;;;;;5052220;28;20041;-77
2022/04/30 09:56:34;;;;;;;23.90;17.73;;;;;;;;;;5056449;28;20069;-77
2022/04/30 09:59:04;;;;;;;25.20;16.95;;;;;;;;;;5051026;28;20064;-77
2022/04/30 10:01:34;;;;;;;23.55;18.40;;;;;;;;;;5053122;28;20037;-75
2022/04/30 10:04:07;;;;;;;27.38;18.30;;;;;;;;;;5058226;28;20042;-75
2022/04/30 10:06:35;;;;;;;25.88;18.95;;;;;;;;;;5044007;28;20073;-76
2022/04/30 10:09:06;;;;;;;20.75;16.40;;;;;;;;;;5044762;28;20057;-77
2022/04/30 10:11:38;;;;;;;22.10;16.15;;;;;;;;;;5049506;28;20049;-76
2022/04/30 10:14:17;;;;;;;24.08;17.63;;;;;;;;;;5053048;28;20037;-74
2022/04/30 10:17:09;;;;;;;23.48;16.92;;;;;;;;;;5052163;28;20068;-75
2022/04/30 10:19:35;;;;;;;24.02;17.00;;;;;;;;;;5050789;28;20080;-75
2022/04/30 10:22:13;;;;;;;21.08;16.17;;;;;;;;;;5049757;28;20046;-74
2022/04/30 10:24:46;;;;;;;23.27;16.30;;;;;;;;;;5050811;28;20057;-77
2022/04/30 10:27:13;;;;;;;23.38;16.95;;;;;;;;;;5048564;28;20030;-78
2022/04/30 10:29:52;;;;;;;25.67;18.00;;;;;;;;;;5049999;28;20053;-78
2022/04/30 10:32:28;;;;;;;23.33;17.65;;;;;;;;;;5047014;28;20056;-76
2022/04/30 10:34:57;;;;;;;23.67;16.67;;;;;;;;;;5050049;28;20060;-76
2022/04/30 10:37:30;;;;;;;23.42;16.25;;;;;;;;;;5044845;28;20050;-74
2022/04/30 10:39:58;;;;;;;22.65;16.77;;;;;;;;;;5049129;28;20456;-76
2022/04/30 10:42:29;;;;;;;22.60;15.38;;;;;;;;;;5040175;28;20042;-76
2022/04/30 10:44:56;;;;;;;21.33;15.02;;;;;;;;;;5040304;28;20523;-76
2022/04/30 10:47:23;;;;;;;21.77;16.00;;;;;;;;;;5044719;28;20047;-76
2022/04/30 10:49:50;;;;;;;24.05;16.27;;;;;;;;;;5044067;28;20060;-76
2022/04/30 10:52:24;;;;;;;21.92;16.15;;;;;;;;;;5042822;28;20049;-76
2022/04/30 10:54:54;;;;;;;21.33;14.77;;;;;;;;;;5040758;28;20487;-77
2022/04/30 10:57:22;;;;;;;20.80;15.37;;;;;;;;;;5014569;28;20050;-76
2022/04/30 11:00:02;;;;;;;22.85;15.45;;;;;;;;;;5019257;28;20287;-76
2022/04/30 11:02:33;;;;;;;22.73;15.27;;;;;;;;;;5014966;28;20476;-76
2022/04/30 11:05:01;;;;;;;24.88;15.45;;;;;;;;;;5013802;28;20049;-77
2022/04/30 11:07:31;;;;;;;22.60;16.52;;;;;;;;;;5013502;28;20084;-77
2022/04/30 11:09:58;;;;;;;23.25;16.02;;;;;;;;;;5014244;28;20100;-77
2022/04/30 11:12:30;;;;;;;24.67;15.98;;;;;;;;;;5013816;28;20053;-75
2022/04/30 11:14:58;;;;;;;25.15;16.05;;;;;;;;;;5014546;28;20053;-75
2022/04/30 11:17:25;;;;;;;22.92;15.63;;;;;;;;;;5013815;28;20097;-76
2022/04/30 11:19:55;;;;;;;20.23;15.43;;;;;;;;;;5013616;28;20130;-75
2022/04/30 11:22:22;;;;;;;22.42;15.55;;;;;;;;;;5014222;28;20140;-76
2022/04/30 11:24:56;;;;;;;22.25;14.45;;;;;;;;;;5013186;28;20061;-75
2022/04/30 11:27:23;;;;;;;20.67;15.20;;;;;;;;;;5012480;28;20049;-74
2022/04/30 11:29:51;;;;;;;20.13;14.38;;;;;;;;;;5019995;28;20624;-74
2022/04/30 11:32:22;;;;;;;21.42;14.18;;;;;;;;;;5018685;28;20065;-76
2022/04/30 11:34:49;;;;;;;;;;;;;;;;;;5021779;28;20069;-77
2022/04/30 11:37:16;;;;;;;19.02;13.75;;;;;;;;;;5024028;28;19921;-77
2022/04/30 11:39:42;;;;;;;21.45;14.07;;;;;;;;;;5017390;28;20054;-75
2022/04/30 11:42:11;;;;;;;21.17;13.70;;;;;;;;;;5015781;28;20497;-76
2022/04/30 11:44:38;;;;;;;22.35;15.57;;;;;;;;;;5013334;28;20140;-75
2022/04/30 11:47:08;;;;;;;21.25;14.65;;;;;;;;;;5029725;28;20128;-76
2022/04/30 11:49:35;;;;;;;22.25;15.05;;;;;;;;;;5014504;28;20053;-77
2022/04/30 11:52:03;;;;;;;23.98;15.05;;;;;;;;;;5014084;28;20073;-76
2022/04/30 11:54:31;;;;;;;21.77;16.67;;;;;;;;;;5013068;28;20108;-76
2022/04/30 11:56:58;;;;;;;23.17;16.08;;;;;;;;;;5012159;28;20054;-76
2022/04/30 11:59:35;;;;;;;22.80;15.88;;;;;;;;;;5012514;28;20041;-76
2022/04/30 12:02:03;;;;;;;22.10;14.98;;;;;;;;;;5011993;28;20104;-76
2022/04/30 12:04:33;;;;;;;20.45;13.52;;;;;;;;;;5013333;28;20050;-77
2022/04/30 12:07:01;;;;;;;20.17;13.47;;;;;;;;;;5014091;28;20677;-76
2022/04/30 12:09:31;;;;;;;20.08;12.57;;;;;;;;;;5014732;28;20080;-76
2022/04/30 12:11:58;;;;;;;17.13;12.30;;;;;;;;;;5014249;28;20107;-75
2022/04/30 12:14:25;;;;;;;17.23;11.23;;;;;;;;;;5014867;28;20480;-74
2022/04/30 12:16:57;;;;;;;18.65;12.65;;;;;;;;;;5014633;28;20049;-76
2022/04/30 12:25:05;;;;;;;14.20;10.52;;;;;;;;;;5023065;28;20056;-75
2022/04/30 12:27:32;;;;;;;14.18;10.20;;;;;;;;;;5028474;28;20066;-77
2022/04/30 12:30:14;;;;;;;16.35;10.50;;;;;;;;;;5018828;28;20058;-76
2022/04/30 12:32:50;;;;;;;13.50;10.07;;;;;;;;;;5011997;28;20050;-76
2022/04/30 12:35:24;;;;;;;17.55;11.18;;;;;;;;;;5010908;28;20057;-77
2022/04/30 12:38:03;;;;;;;15.40;10.55;;;;;;;;;;5012495;28;20069;-77
2022/04/30 12:40:30;;;;;;;15.63;10.18;;;;;;;;;;5011839;28;20049;-77
2022/04/30 12:42:57;;;;;;;15.60;10.35;;;;;;;;;;5012257;28;20042;-75
2022/04/30 12:45:23;;;;;;;14.65;10.18;;;;;;;;;;5012080;28;20050;-77
2022/04/30 12:47:52;;;;;;;16.52;10.88;;;;;;;;;;5031200;28;20046;-75
2022/04/30 12:50:19;;;;;;;16.73;11.32;;;;;;;;;;5031876;28;20053;-75
2022/04/30 12:52:46;;;;;;;16.13;11.02;;;;;;;;;;5032287;28;20057;-76
2022/04/30 12:55:14;;;;;;;17.73;11.65;;;;;;;;;;5031209;28;20049;-76
2022/04/30 12:57:41;;;;;;;18.38;11.70;;;;;;;;;;5031537;28;20132;-76
2022/04/30 13:00:11;;;;;;;19.05;11.63;;;;;;;;;;5030946;28;20046;-76
2022/04/30 13:02:38;;;;;;;19.20;10.98;;;;;;;;;;5031235;28;20100;-76
2022/04/30 13:05:08;;;;;;;14.25;9.95;;;;;;;;;;5031051;28;20054;-76
2022/04/30 13:07:35;;;;;;;18.77;10.48;;;;;;;;;;5031613;28;20455;-76
2022/04/30 13:15:31;;;;;;;14.23;10.18;;;;;;;;;;5027807;28;20119;-77
2022/04/30 13:17:58;;;;;;;15.30;10.50;;;;;;;;;;5018241;28;20046;-75
2022/04/30 13:20:28;;;;;;;14.48;10.85;;;;;;;;;;5013639;28;20054;-77
2022/04/30 13:22:56;;;;;;;18.05;10.85;;;;;;;;;;5012165;28;20050;-76
2022/04/30 13:25:23;;;;;;;17.73;11.05;;;;;;;;;;5012179;28;20175;-76
2022/04/30 13:27:50;;;;;;;15.20;10.32;;;;;;;;;;5011710;28;20053;-76
2022/04/30 13:30:18;;;;;;;15.43;9.75;;;;;;;;;;5011139;28;20046;-76
2022/04/30 13:32:45;;;;;;;15.00;10.07;;;;;;;;;;5011356;28;20070;-76
2022/04/30 13:35:12;;;;;;;16.63;10.73;;;;;;;;;;5011028;28;20108;-76
2022/04/30 13:37:41;;;;;;;15.73;10.15;;;;;;;;;;5010996;28;20188;-77
2022/04/30 13:40:09;;;;;;;15.68;10.10;;;;;;;;;;5010919;28;20084;-77
2022/04/30 13:42:37;;;;;;;13.52;9.52;;;;;;;;;;5012253;28;20067;-76
2022/04/30 13:45:06;;;;;;;17.67;13.10;;;;;;;;;;5015542;28;20046;-77
2022/04/30 13:47:33;;;;;;;14.55;10.27;;;;;;;;;;5036152;28;20056;-77
2022/04/30 13:50:00;;;;;;;15.35;10.80;;;;;;;;;;5036796;28;20041;-76
2022/04/30 13:52:27;;;;;;;16.08;10.10;;;;;;;;;;5043902;28;20132;-75
2022/04/30 13:54:55;;;;;;;15.32;9.95;;;;;;;;;;5044154;28;20049;-75
2022/04/30 13:57:23;;;;;;;12.98;8.93;;;;;;;;;;5042452;28;20068;-75
2022/04/30 13:59:50;;;;;;;14.98;9.80;;;;;;;;;;5037774;28;20045;-76
2022/04/30 14:02:16;;;;;;;14.55;9.95;;;;;;;;;;5035834;28;20049;-78
2022/04/30 14:04:43;;;;;;;12.95;8.90;;;;;;;;;;5033229;28;20060;-76
2022/04/30 14:07:10;;;;;;;13.15;9.25;;;;;;;;;;5034107;28;20123;-76
2022/04/30 14:09:38;;;;;;;12.43;8.90;;;;;;;;;;5033817;28;20038;-77
2022/04/30 14:12:07;;;;;;;11.23;7.40;;;;;;;;;;5033844;28;20092;-77
2022/04/30 14:20:05;;;;;;;12.18;8.10;;;;;;;;;;5033239;28;20538;-77
2022/04/30 14:22:33;;;;;;;16.67;9.43;;;;;;;;;;5033292;28;20049;-76
2022/04/30 14:25:00;;;;;;;17.15;12.35;;;;;;;;;;5033411;28;20513;-76
2022/04/30 14:27:28;;;;;;;24.92;17.63;;;;;;;;;;5033769;28;20076;-77
2022/04/30 14:29:55;;;;;;;13.15;9.50;;;;;;;;;;5034203;28;20053;-76
2022/04/30 14:32:22;;;;;;;12.38;8.32;;;;;;;;;;5034077;28;20045;-77
2022/04/30 14:34:49;;;;;;;12.57;8.20;;;;;;;;;;5034862;28;20057;-76
2022/04/30 14:37:16;;;;;;;12.60;8.30;;;;;;;;;;5033683;28;20049;-76
2022/04/30 14:39:43;;;;;;;16.73;10.55;;;;;;;;;;5033905;28;20046;-77
2022/04/30 14:42:10;;;;;;;12.77;8.23;;;;;;;;;;5035418;28;20053;-77
2022/04/30 14:44:42;;;;;;;13.40;8.45;;;;;;;;;;5015952;28;20046;-78
2022/04/30 14:47:10;;;;;;;12.00;8.20;;;;;;;;;;5033213;28;20049;-76
2022/04/30 14:49:37;;;;;;;11.70;9.05;;;;;;;;;;5043003;22;20045;-76
2022/04/30 14:52:04;;;;;;;14.52;9.88;;;;;;;;;;5033489;28;20056;-77
2022/04/30 14:54:31;;;;;;;14.38;8.93;;;;;;;;;;5032361;28;20049;-77
2022/04/30 14:56:58;;;;;;;12.10;8.48;;;;;;;;;;5034831;28;20712;-78
2022/04/30 14:59:25;;;;;;;14.32;8.88;;;;;;;;;;5044086;28;20106;-78
2022/04/30 15:01:53;;;;;;;13.00;8.63;;;;;;;;;;5054428;28;20446;-79
2022/04/30 15:04:20;;;;;;;14.32;9.18;;;;;;;;;;5020746;28;20054;-79
2022/04/30 15:06:47;;;;;;;15.27;9.35;;;;;;;;;;5015419;28;20049;-79
2022/04/30 15:09:14;;;;;;;12.95;8.63;;;;;;;;;;5015549;28;20108;-79
2022/04/30 15:11:41;;;;;;;14.60;8.82;;;;;;;;;;5015640;28;20108;-79